CHH7017 ZJHK-ZGSD
Flight info
| Callsign | CHH7017 |
|---|---|
| Flight time | 0h 54m |
| Altitude | 241 |
| Route | SAMAS9XD SAMAS G221 BIGRO W552 UJ DCT |
| Aircraft | A359/H-SDE2E3FGHIJ5LORVWXY/LB1 |
Departure
| Time | 2026-04-25 12:33 |
|---|---|
| Airport | Haikou Meilan International Airport (ZJHK) |
Arrival
| Time | 2026-04-25 13:27 |
|---|---|
| Airport | Zhuhai Jinwan Airport (ZGSD) |
| Time | Latitude | Longitude | Altitude | Speed | Heading |
|---|---|---|---|---|---|
| 2026-04-25 12:19 | 19.93869 | 110.46202 | 83 ft | 0 kts | 359° |
| 2026-04-25 12:22 | 19.93865 | 110.46202 | 83 ft | 2 kts | 359° |
| 2026-04-25 12:22 | 19.93849 | 110.46203 | 87 ft | 2 kts | 358° |
| 2026-04-25 12:22 | 19.93832 | 110.46204 | 85 ft | 2 kts | 355° |
| 2026-04-25 12:23 | 19.93816 | 110.46206 | 87 ft | 2 kts | 353° |
| 2026-04-25 12:23 | 19.93800 | 110.46208 | 86 ft | 2 kts | 350° |
| 2026-04-25 12:23 | 19.93783 | 110.46212 | 88 ft | 2 kts | 345° |
| 2026-04-25 12:23 | 19.93768 | 110.46217 | 86 ft | 2 kts | 338° |
| 2026-04-25 12:24 | 19.93753 | 110.46225 | 89 ft | 2 kts | 323° |
| 2026-04-25 12:24 | 19.93741 | 110.46237 | 89 ft | 2 kts | 298° |
| 2026-04-25 12:24 | 19.93737 | 110.46252 | 88 ft | 1 kts | 272° |
| 2026-04-25 12:24 | 19.93737 | 110.46254 | 88 ft | 0 kts | 270° |
| 2026-04-25 12:26 | 19.93737 | 110.46201 | 87 ft | 16 kts | 270° |
| 2026-04-25 12:26 | 19.93737 | 110.46062 | 87 ft | 20 kts | 270° |
| 2026-04-25 12:26 | 19.93736 | 110.45913 | 88 ft | 20 kts | 268° |
| 2026-04-25 12:27 | 19.93731 | 110.45751 | 87 ft | 24 kts | 268° |
| 2026-04-25 12:27 | 19.93729 | 110.45575 | 86 ft | 24 kts | 270° |
| 2026-04-25 12:27 | 19.93730 | 110.45392 | 86 ft | 25 kts | 270° |
| 2026-04-25 12:27 | 19.93731 | 110.45205 | 88 ft | 26 kts | 270° |
| 2026-04-25 12:28 | 19.93728 | 110.45070 | 87 ft | 15 kts | 268° |
| 2026-04-25 12:28 | 19.93741 | 110.45003 | 91 ft | 5 kts | 316° |
| 2026-04-25 12:28 | 19.93862 | 110.44987 | 90 ft | 28 kts | 1° |
| 2026-04-25 12:28 | 19.94060 | 110.44993 | 88 ft | 21 kts | 0° |
| 2026-04-25 12:29 | 19.94121 | 110.44990 | 84 ft | 9 kts | 356° |
| 2026-04-25 12:29 | 19.94198 | 110.44985 | 85 ft | 13 kts | 359° |
| 2026-04-25 12:29 | 19.94382 | 110.44984 | 66 ft | 36 kts | 0° |
| 2026-04-25 12:29 | 19.94592 | 110.44988 | 58 ft | 28 kts | 1° |
| 2026-04-25 12:30 | 19.94796 | 110.44986 | 59 ft | 31 kts | 360° |
| 2026-04-25 12:30 | 19.94951 | 110.44985 | 52 ft | 22 kts | 360° |
| 2026-04-25 12:30 | 19.95064 | 110.44959 | 52 ft | 12 kts | 311° |
| 2026-04-25 12:30 | 19.95134 | 110.44872 | 51 ft | 21 kts | 310° |
| 2026-04-25 12:31 | 19.95225 | 110.44810 | 52 ft | 13 kts | 357° |
| 2026-04-25 12:31 | 19.95316 | 110.44830 | 49 ft | 15 kts | 14° |
| 2026-04-25 12:31 | 19.95377 | 110.44903 | 55 ft | 13 kts | 88° |
| 2026-04-25 12:31 | 19.95375 | 110.44932 | 57 ft | 0 kts | 93° |
| 2026-04-25 12:32 | 19.95375 | 110.44933 | 57 ft | 3 kts | 93° |
| 2026-04-25 12:32 | 19.95373 | 110.45203 | 59 ft | 78 kts | 89° |
| 2026-04-25 12:32 | 19.95377 | 110.46101 | 76 ft | 161 kts | 89° |
| 2026-04-25 12:32 | 19.95373 | 110.47428 | 602 ft | 189 kts | 90° |
| 2026-04-25 12:33 | 19.95383 | 110.48748 | 1478 ft | 171 kts | 89° |
| 2026-04-25 12:33 | 19.95871 | 110.49889 | 1830 ft | 183 kts | 46° |
| 2026-04-25 12:33 | 19.97056 | 110.50579 | 2014 ft | 205 kts | 26° |
| 2026-04-25 12:33 | 19.98400 | 110.51213 | 2332 ft | 215 kts | 27° |
| 2026-04-25 12:34 | 19.99730 | 110.51949 | 2826 ft | 216 kts | 31° |
| 2026-04-25 12:34 | 20.01045 | 110.52790 | 3128 ft | 229 kts | 33° |
| 2026-04-25 12:34 | 20.02437 | 110.53769 | 3306 ft | 250 kts | 35° |
| 2026-04-25 12:34 | 20.03408 | 110.54484 | 3443 ft | 263 kts | 36° |
| 2026-04-25 12:35 | 20.05487 | 110.56070 | 3754 ft | 287 kts | 37° |
| 2026-04-25 12:35 | 20.07129 | 110.57337 | 4191 ft | 295 kts | 36° |
| 2026-04-25 12:35 | 20.08811 | 110.58617 | 4714 ft | 300 kts | 33° |
| 2026-04-25 12:35 | 20.10750 | 110.59442 | 5182 ft | 304 kts | 7° |
| 2026-04-25 12:36 | 20.12856 | 110.59266 | 5768 ft | 305 kts | 347° |
| 2026-04-25 12:36 | 20.14921 | 110.58706 | 6330 ft | 307 kts | 345° |
| 2026-04-25 12:36 | 20.16997 | 110.58121 | 6839 ft | 310 kts | 346° |
| 2026-04-25 12:36 | 20.19092 | 110.57552 | 7369 ft | 312 kts | 346° |
| 2026-04-25 12:37 | 20.21213 | 110.56999 | 7895 ft | 314 kts | 346° |
| 2026-04-25 12:37 | 20.23353 | 110.56443 | 8284 ft | 322 kts | 346° |
| 2026-04-25 12:37 | 20.25575 | 110.55871 | 8512 ft | 335 kts | 347° |
| 2026-04-25 12:37 | 20.27879 | 110.55280 | 8725 ft | 346 kts | 346° |
| 2026-04-25 12:38 | 20.30246 | 110.54673 | 9078 ft | 352 kts | 346° |
| 2026-04-25 12:38 | 20.32636 | 110.54062 | 9508 ft | 355 kts | 346° |
| 2026-04-25 12:38 | 20.35048 | 110.53447 | 9961 ft | 358 kts | 347° |
| 2026-04-25 12:38 | 20.37473 | 110.52831 | 10355 ft | 360 kts | 346° |
| 2026-04-25 12:39 | 20.39922 | 110.52209 | 10749 ft | 363 kts | 346° |
| 2026-04-25 12:39 | 20.42377 | 110.51586 | 11156 ft | 364 kts | 346° |
| 2026-04-25 12:39 | 20.44862 | 110.50973 | 11547 ft | 367 kts | 348° |
| 2026-04-25 12:39 | 20.47400 | 110.50695 | 11957 ft | 369 kts | 0° |
| 2026-04-25 12:40 | 20.49945 | 110.51114 | 12329 ft | 373 kts | 16° |
| 2026-04-25 12:40 | 20.52305 | 110.52287 | 12706 ft | 378 kts | 32° |
| 2026-04-25 12:40 | 20.54331 | 110.54097 | 13084 ft | 382 kts | 43° |
| 2026-04-25 12:40 | 20.56160 | 110.56162 | 13445 ft | 385 kts | 47° |
| 2026-04-25 12:41 | 20.57903 | 110.58342 | 13801 ft | 387 kts | 49° |
| 2026-04-25 12:41 | 20.59612 | 110.60577 | 14110 ft | 390 kts | 50° |
| 2026-04-25 12:41 | 20.61330 | 110.62835 | 14391 ft | 393 kts | 49° |
| 2026-04-25 12:41 | 20.63069 | 110.65097 | 14725 ft | 395 kts | 49° |
| 2026-04-25 12:42 | 20.64834 | 110.67357 | 15020 ft | 398 kts | 48° |
| 2026-04-25 12:42 | 20.65433 | 110.68117 | 15133 ft | 398 kts | 48° |
| 2026-04-25 12:42 | 20.68431 | 110.71882 | 15665 ft | 402 kts | 47° |
| 2026-04-25 12:42 | 20.70255 | 110.74154 | 15979 ft | 404 kts | 47° |
| 2026-04-25 12:43 | 20.72094 | 110.76440 | 16279 ft | 407 kts | 47° |
| 2026-04-25 12:43 | 20.73943 | 110.78741 | 16603 ft | 409 kts | 47° |
| 2026-04-25 12:43 | 20.77043 | 110.82604 | 17110 ft | 414 kts | 47° |
| 2026-04-25 12:44 | 20.78920 | 110.84947 | 17411 ft | 416 kts | 47° |
| 2026-04-25 12:44 | 20.80807 | 110.87305 | 17724 ft | 419 kts | 47° |
| 2026-04-25 12:44 | 20.84614 | 110.92069 | 18322 ft | 424 kts | 47° |
| 2026-04-25 12:45 | 20.86534 | 110.94473 | 18592 ft | 426 kts | 47° |
| 2026-04-25 12:45 | 20.88462 | 110.96889 | 18855 ft | 428 kts | 47° |
| 2026-04-25 12:45 | 20.92345 | 111.01754 | 19385 ft | 432 kts | 47° |
| 2026-04-25 12:46 | 20.94299 | 111.04203 | 19652 ft | 434 kts | 47° |
| 2026-04-25 12:46 | 20.96264 | 111.06668 | 19920 ft | 436 kts | 47° |
| 2026-04-25 12:46 | 20.98237 | 111.09134 | 20192 ft | 438 kts | 47° |
| 2026-04-25 12:46 | 21.00228 | 111.11610 | 20435 ft | 440 kts | 47° |
| 2026-04-25 12:47 | 21.02228 | 111.14094 | 20696 ft | 442 kts | 47° |
| 2026-04-25 12:47 | 21.04237 | 111.16591 | 20949 ft | 444 kts | 47° |
| 2026-04-25 12:47 | 21.06256 | 111.19101 | 21209 ft | 445 kts | 47° |
| 2026-04-25 12:47 | 21.08279 | 111.21621 | 21449 ft | 447 kts | 47° |
| 2026-04-25 12:48 | 21.10310 | 111.24151 | 21685 ft | 449 kts | 47° |
| 2026-04-25 12:48 | 21.12352 | 111.26698 | 21940 ft | 451 kts | 47° |
| 2026-04-25 12:48 | 21.14398 | 111.29254 | 22187 ft | 453 kts | 47° |
| 2026-04-25 12:48 | 21.16453 | 111.31820 | 22421 ft | 455 kts | 47° |
| 2026-04-25 12:49 | 21.18517 | 111.34400 | 22647 ft | 457 kts | 47° |
| 2026-04-25 12:49 | 21.20585 | 111.36986 | 22884 ft | 458 kts | 47° |
| 2026-04-25 12:49 | 21.22666 | 111.39590 | 23116 ft | 460 kts | 47° |
| 2026-04-25 12:49 | 21.24753 | 111.42201 | 23351 ft | 462 kts | 47° |
| 2026-04-25 12:50 | 21.26846 | 111.44822 | 23552 ft | 464 kts | 47° |
| 2026-04-25 12:50 | 21.28949 | 111.47456 | 23764 ft | 466 kts | 47° |
| 2026-04-25 12:50 | 21.31058 | 111.50098 | 23932 ft | 468 kts | 47° |
| 2026-04-25 12:50 | 21.33177 | 111.52753 | 24112 ft | 469 kts | 47° |
| 2026-04-25 12:51 | 21.35301 | 111.55415 | 24205 ft | 470 kts | 47° |
| 2026-04-25 12:51 | 21.37424 | 111.58079 | 24215 ft | 470 kts | 47° |
| 2026-04-25 12:51 | 21.39556 | 111.60755 | 24214 ft | 471 kts | 47° |
| 2026-04-25 12:51 | 21.41683 | 111.63427 | 24214 ft | 471 kts | 47° |
| 2026-04-25 12:52 | 21.43809 | 111.66099 | 24217 ft | 471 kts | 47° |
| 2026-04-25 12:52 | 21.45935 | 111.68772 | 24217 ft | 471 kts | 47° |
| 2026-04-25 12:52 | 21.48064 | 111.71449 | 24212 ft | 471 kts | 47° |
| 2026-04-25 12:52 | 21.50190 | 111.74124 | 24214 ft | 471 kts | 47° |
| 2026-04-25 12:53 | 21.52319 | 111.76805 | 24214 ft | 471 kts | 47° |
| 2026-04-25 12:53 | 21.54442 | 111.79482 | 24212 ft | 471 kts | 47° |
| 2026-04-25 12:53 | 21.56341 | 111.82367 | 24211 ft | 475 kts | 58° |
| 2026-04-25 12:53 | 21.57654 | 111.85630 | 24216 ft | 478 kts | 69° |
| 2026-04-25 12:54 | 21.58662 | 111.88986 | 24212 ft | 479 kts | 72° |
| 2026-04-25 12:54 | 21.59540 | 111.92445 | 24211 ft | 480 kts | 74° |
| 2026-04-25 12:54 | 21.60355 | 111.95969 | 24214 ft | 480 kts | 75° |
| 2026-04-25 12:54 | 21.61139 | 111.99461 | 24212 ft | 480 kts | 75° |
| 2026-04-25 12:55 | 21.61915 | 112.02903 | 24211 ft | 481 kts | 75° |
| 2026-04-25 12:55 | 21.62454 | 112.05261 | 24212 ft | 481 kts | 75° |
| 2026-04-25 12:55 | 21.63530 | 112.09876 | 24214 ft | 481 kts | 74° |
| 2026-04-25 12:55 | 21.64355 | 112.13352 | 24213 ft | 481 kts | 74° |
| 2026-04-25 12:56 | 21.65188 | 112.16837 | 24215 ft | 481 kts | 74° |
| 2026-04-25 12:56 | 21.66025 | 112.20324 | 24216 ft | 481 kts | 74° |
| 2026-04-25 12:56 | 21.66861 | 112.23804 | 24213 ft | 481 kts | 74° |
| 2026-04-25 12:56 | 21.67698 | 112.27290 | 24216 ft | 482 kts | 74° |
| 2026-04-25 12:57 | 21.68533 | 112.30775 | 24216 ft | 482 kts | 74° |
| 2026-04-25 12:57 | 21.69367 | 112.34262 | 24216 ft | 482 kts | 74° |
| 2026-04-25 12:57 | 21.70200 | 112.37751 | 24217 ft | 482 kts | 74° |
| 2026-04-25 12:57 | 21.71030 | 112.41240 | 24220 ft | 482 kts | 74° |
| 2026-04-25 12:58 | 21.71746 | 112.44252 | 24219 ft | 482 kts | 74° |
| 2026-04-25 12:58 | 21.72577 | 112.47746 | 24209 ft | 482 kts | 74° |
| 2026-04-25 12:58 | 21.73406 | 112.51241 | 24216 ft | 482 kts | 74° |
| 2026-04-25 12:58 | 21.74235 | 112.54735 | 24221 ft | 482 kts | 74° |
| 2026-04-25 12:59 | 21.75062 | 112.58228 | 24209 ft | 482 kts | 74° |
| 2026-04-25 12:59 | 21.75901 | 112.61725 | 24221 ft | 482 kts | 74° |
| 2026-04-25 12:59 | 21.76752 | 112.65215 | 24225 ft | 482 kts | 74° |
| 2026-04-25 12:59 | 21.77607 | 112.68706 | 24214 ft | 483 kts | 74° |
| 2026-04-25 13:00 | 21.77895 | 112.69883 | 24223 ft | 483 kts | 74° |
| 2026-04-25 13:00 | 21.78310 | 112.71575 | 24214 ft | 483 kts | 74° |
| 2026-04-25 13:00 | 21.79452 | 112.76252 | 24220 ft | 483 kts | 74° |
| 2026-04-25 13:00 | 21.80297 | 112.79721 | 24030 ft | 476 kts | 74° |
| 2026-04-25 13:01 | 21.81129 | 112.83156 | 23631 ft | 473 kts | 74° |
| 2026-04-25 13:01 | 21.81942 | 112.86568 | 23116 ft | 469 kts | 75° |
| 2026-04-25 13:01 | 21.82736 | 112.89954 | 22564 ft | 465 kts | 75° |
| 2026-04-25 13:01 | 21.83522 | 112.93328 | 21958 ft | 464 kts | 75° |
| 2026-04-25 13:02 | 21.84304 | 112.96684 | 21359 ft | 462 kts | 75° |
| 2026-04-25 13:02 | 21.85084 | 113.00027 | 20776 ft | 459 kts | 75° |
| 2026-04-25 13:02 | 21.85860 | 113.03351 | 20320 ft | 454 kts | 75° |
| 2026-04-25 13:02 | 21.86623 | 113.06600 | 20147 ft | 441 kts | 74° |
| 2026-04-25 13:03 | 21.87364 | 113.09744 | 20126 ft | 425 kts | 74° |
| 2026-04-25 13:03 | 21.88073 | 113.12770 | 20127 ft | 409 kts | 75° |
| 2026-04-25 13:03 | 21.88752 | 113.15706 | 19993 ft | 399 kts | 75° |
| 2026-04-25 13:03 | 21.89412 | 113.18566 | 19826 ft | 389 kts | 75° |
| 2026-04-25 13:04 | 21.90054 | 113.21357 | 19675 ft | 380 kts | 75° |
| 2026-04-25 13:04 | 21.90784 | 113.24053 | 19511 ft | 369 kts | 66° |
| 2026-04-25 13:04 | 21.91813 | 113.26548 | 19363 ft | 359 kts | 63° |
| 2026-04-25 13:04 | 21.92875 | 113.28941 | 19253 ft | 350 kts | 62° |
| 2026-04-25 13:05 | 21.93918 | 113.31279 | 19112 ft | 341 kts | 62° |
| 2026-04-25 13:05 | 21.94930 | 113.33553 | 18993 ft | 332 kts | 62° |
| 2026-04-25 13:05 | 21.95954 | 113.35741 | 18865 ft | 323 kts | 58° |
| 2026-04-25 13:05 | 21.97092 | 113.37757 | 18674 ft | 316 kts | 53° |
| 2026-04-25 13:06 | 21.98307 | 113.39712 | 18424 ft | 313 kts | 53° |
| 2026-04-25 13:06 | 21.99494 | 113.41674 | 18137 ft | 311 kts | 54° |
| 2026-04-25 13:06 | 22.00665 | 113.43623 | 17832 ft | 309 kts | 54° |
| 2026-04-25 13:06 | 22.01898 | 113.45495 | 17501 ft | 304 kts | 43° |
| 2026-04-25 13:07 | 22.03577 | 113.46784 | 17163 ft | 293 kts | 19° |
| 2026-04-25 13:07 | 22.05528 | 113.47199 | 16834 ft | 283 kts | 355° |
| 2026-04-25 13:07 | 22.07441 | 113.46835 | 16539 ft | 277 kts | 342° |
| 2026-04-25 13:07 | 22.09284 | 113.46256 | 16243 ft | 275 kts | 341° |
| 2026-04-25 13:08 | 22.11113 | 113.45660 | 15925 ft | 274 kts | 341° |
| 2026-04-25 13:08 | 22.12933 | 113.45065 | 15635 ft | 273 kts | 341° |
| 2026-04-25 13:08 | 22.14749 | 113.44473 | 15306 ft | 273 kts | 341° |
| 2026-04-25 13:08 | 22.16430 | 113.43552 | 14874 ft | 274 kts | 319° |
| 2026-04-25 13:09 | 22.17593 | 113.41923 | 14415 ft | 278 kts | 295° |
| 2026-04-25 13:09 | 22.18012 | 113.39874 | 13995 ft | 285 kts | 274° |
| 2026-04-25 13:09 | 22.17926 | 113.37715 | 13529 ft | 291 kts | 268° |
| 2026-04-25 13:09 | 22.17737 | 113.35522 | 12957 ft | 297 kts | 267° |
| 2026-04-25 13:10 | 22.17537 | 113.33273 | 12347 ft | 305 kts | 267° |
| 2026-04-25 13:10 | 22.17342 | 113.30971 | 11758 ft | 311 kts | 267° |
| 2026-04-25 13:10 | 22.17152 | 113.28622 | 11178 ft | 317 kts | 267° |
| 2026-04-25 13:10 | 22.16955 | 113.26257 | 10846 ft | 314 kts | 265° |
| 2026-04-25 13:11 | 22.16603 | 113.23962 | 10675 ft | 305 kts | 260° |
| 2026-04-25 13:11 | 22.16158 | 113.21764 | 10535 ft | 296 kts | 259° |
| 2026-04-25 13:11 | 22.15710 | 113.19629 | 10385 ft | 286 kts | 259° |
| 2026-04-25 13:11 | 22.15276 | 113.17570 | 10268 ft | 277 kts | 259° |
| 2026-04-25 13:12 | 22.14856 | 113.15573 | 10145 ft | 268 kts | 259° |
| 2026-04-25 13:12 | 22.14449 | 113.13644 | 10027 ft | 260 kts | 258° |
| 2026-04-25 13:12 | 22.13927 | 113.11794 | 9818 ft | 256 kts | 252° |
| 2026-04-25 13:12 | 22.13527 | 113.10603 | 9622 ft | 255 kts | 251° |
| 2026-04-25 13:13 | 22.12704 | 113.08220 | 9249 ft | 252 kts | 251° |
| 2026-04-25 13:13 | 22.12085 | 113.06457 | 8978 ft | 249 kts | 250° |
| 2026-04-25 13:13 | 22.11464 | 113.04741 | 8849 ft | 241 kts | 250° |
| 2026-04-25 13:13 | 22.10864 | 113.03091 | 8739 ft | 232 kts | 250° |
| 2026-04-25 13:14 | 22.10286 | 113.01504 | 8616 ft | 223 kts | 250° |
| 2026-04-25 13:14 | 22.09727 | 112.99975 | 8456 ft | 216 kts | 250° |
| 2026-04-25 13:14 | 22.09180 | 112.98479 | 8210 ft | 214 kts | 250° |
| 2026-04-25 13:14 | 22.08635 | 112.96995 | 7946 ft | 212 kts | 248° |
| 2026-04-25 13:15 | 22.07785 | 112.95717 | 7656 ft | 211 kts | 219° |
| 2026-04-25 13:15 | 22.06471 | 112.95112 | 7370 ft | 209 kts | 191° |
| 2026-04-25 13:15 | 22.05005 | 112.94988 | 7080 ft | 208 kts | 179° |
| 2026-04-25 13:15 | 22.03567 | 112.95111 | 6805 ft | 207 kts | 172° |
| 2026-04-25 13:16 | 22.02144 | 112.95351 | 6498 ft | 208 kts | 171° |
| 2026-04-25 13:16 | 22.00684 | 112.95617 | 6180 ft | 219 kts | 170° |
| 2026-04-25 13:16 | 21.99318 | 112.95865 | 6151 ft | 226 kts | 170° |
| 2026-04-25 13:16 | 21.97746 | 112.96153 | 6153 ft | 226 kts | 170° |
| 2026-04-25 13:17 | 21.96196 | 112.96438 | 6160 ft | 226 kts | 170° |
| 2026-04-25 13:17 | 21.94645 | 112.96724 | 6159 ft | 226 kts | 170° |
| 2026-04-25 13:17 | 21.93105 | 112.97012 | 6158 ft | 224 kts | 169° |
| 2026-04-25 13:17 | 21.91590 | 112.97310 | 6161 ft | 225 kts | 171° |
| 2026-04-25 13:18 | 21.90055 | 112.97638 | 6160 ft | 225 kts | 170° |
| 2026-04-25 13:18 | 21.88498 | 112.97975 | 6159 ft | 225 kts | 170° |
| 2026-04-25 13:18 | 21.86983 | 112.98316 | 6154 ft | 225 kts | 168° |
| 2026-04-25 13:18 | 21.85616 | 112.99098 | 6159 ft | 225 kts | 136° |
| 2026-04-25 13:19 | 21.84882 | 113.00553 | 6155 ft | 224 kts | 101° |
| 2026-04-25 13:19 | 21.85029 | 113.02195 | 6165 ft | 223 kts | 69° |
| 2026-04-25 13:19 | 21.85731 | 113.03683 | 6160 ft | 223 kts | 60° |
| 2026-04-25 13:19 | 21.85997 | 113.04165 | 6160 ft | 223 kts | 62° |
| 2026-04-25 13:20 | 21.86871 | 113.06139 | 6162 ft | 212 kts | 75° |
| 2026-04-25 13:20 | 21.87293 | 113.08163 | 6163 ft | 209 kts | 81° |
| 2026-04-25 13:20 | 21.87596 | 113.09696 | 6139 ft | 210 kts | 82° |
| 2026-04-25 13:20 | 21.87881 | 113.11237 | 5856 ft | 210 kts | 80° |
| 2026-04-25 13:21 | 21.88140 | 113.12781 | 5595 ft | 211 kts | 79° |
| 2026-04-25 13:21 | 21.88432 | 113.14355 | 5710 ft | 216 kts | 74° |
| 2026-04-25 13:21 | 21.88731 | 113.15976 | 5519 ft | 220 kts | 80° |
| 2026-04-25 13:21 | 21.88981 | 113.17554 | 5406 ft | 208 kts | 82° |
| 2026-04-25 13:22 | 21.89165 | 113.19080 | 5181 ft | 204 kts | 83° |
| 2026-04-25 13:22 | 21.89344 | 113.20591 | 4897 ft | 203 kts | 83° |
| 2026-04-25 13:22 | 21.89526 | 113.22114 | 4494 ft | 208 kts | 83° |
| 2026-04-25 13:23 | 21.90274 | 113.25133 | 3656 ft | 212 kts | 57° |
| 2026-04-25 13:23 | 21.91142 | 113.26347 | 3242 ft | 198 kts | 51° |
| 2026-04-25 13:23 | 21.91992 | 113.27427 | 2841 ft | 186 kts | 50° |
| 2026-04-25 13:23 | 21.92830 | 113.28474 | 2428 ft | 179 kts | 50° |
| 2026-04-25 13:24 | 21.93614 | 113.29447 | 2148 ft | 168 kts | 50° |
| 2026-04-25 13:24 | 21.94300 | 113.30406 | 1958 ft | 161 kts | 60° |
| 2026-04-25 13:24 | 21.94958 | 113.31399 | 1697 ft | 161 kts | 51° |
| 2026-04-25 13:24 | 21.95740 | 113.32252 | 1461 ft | 164 kts | 47° |
| 2026-04-25 13:25 | 21.96528 | 113.33139 | 1115 ft | 162 kts | 46° |
| 2026-04-25 13:25 | 21.97242 | 113.34052 | 821 ft | 156 kts | 54° |
| 2026-04-25 13:25 | 21.98081 | 113.34850 | 446 ft | 170 kts | 49° |
| 2026-04-25 13:25 | 21.98870 | 113.35749 | 250 ft | 160 kts | 44° |
| 2026-04-25 13:26 | 21.99655 | 113.36578 | 49 ft | 156 kts | 45° |
| 2026-04-25 13:26 | 22.00379 | 113.37364 | 31 ft | 142 kts | 45° |
| 2026-04-25 13:26 | 22.01017 | 113.38021 | 197 ft | 109 kts | 47° |
| 2026-04-25 13:26 | 22.01522 | 113.38555 | 147 ft | 98 kts | 47° |
| 2026-04-25 13:27 | 22.01991 | 113.39032 | 37 ft | 91 kts | 46° |
| 2026-04-25 13:27 | 22.02315 | 113.39377 | 26 ft | 19 kts | 46° |